sensor_id;sensor_type;location;lat;lon;timestamp;P1;durP1;ratioP1;P2;durP2;ratioP2
75236;SDS011;63826;48.100;-1.670;2023-02-02T00:00:13;5.60;;;1.77;;
75236;SDS011;63826;48.100;-1.670;2023-02-02T00:02:39;6.32;;;1.77;;
75236;SDS011;63826;48.100;-1.670;2023-02-02T00:05:05;6.53;;;1.70;;
75236;SDS011;63826;48.100;-1.670;2023-02-02T00:07:31;6.23;;;1.70;;
75236;SDS011;63826;48.100;-1.670;2023-02-02T00:09:57;6.75;;;2.08;;
75236;SDS011;63826;48.100;-1.670;2023-02-02T00:12:23;6.38;;;2.05;;
75236;SDS011;63826;48.100;-1.670;2023-02-02T00:14:49;6.32;;;1.98;;
75236;SDS011;63826;48.100;-1.670;2023-02-02T00:17:15;6.67;;;1.83;;
75236;SDS011;63826;48.100;-1.670;2023-02-02T00:19:41;7.70;;;2.25;;
75236;SDS011;63826;48.100;-1.670;2023-02-02T00:22:07;6.50;;;2.28;;
75236;SDS011;63826;48.100;-1.670;2023-02-02T00:24:33;6.00;;;1.63;;
75236;SDS011;63826;48.100;-1.670;2023-02-02T00:26:59;7.07;;;2.10;;
75236;SDS011;63826;48.100;-1.670;2023-02-02T00:29:26;5.37;;;1.70;;
75236;SDS011;63826;48.100;-1.670;2023-02-02T00:31:53;6.15;;;2.10;;
75236;SDS011;63826;48.100;-1.670;2023-02-02T00:34:19;6.05;;;2.17;;
75236;SDS011;63826;48.100;-1.670;2023-02-02T00:36:45;6.97;;;1.90;;
75236;SDS011;63826;48.100;-1.670;2023-02-02T00:39:14;8.05;;;2.20;;
75236;SDS011;63826;48.100;-1.670;2023-02-02T00:41:40;6.60;;;2.00;;
75236;SDS011;63826;48.100;-1.670;2023-02-02T00:44:06;6.47;;;1.90;;
75236;SDS011;63826;48.100;-1.670;2023-02-02T00:46:51;7.65;;;2.10;;
75236;SDS011;63826;48.100;-1.670;2023-02-02T00:49:17;6.00;;;1.77;;
75236;SDS011;63826;48.100;-1.670;2023-02-02T00:51:43;5.93;;;2.10;;
75236;SDS011;63826;48.100;-1.670;2023-02-02T00:54:09;5.47;;;1.90;;
75236;SDS011;63826;48.100;-1.670;2023-02-02T00:56:34;6.75;;;2.10;;
75236;SDS011;63826;48.100;-1.670;2023-02-02T00:59:00;7.13;;;2.13;;
75236;SDS011;63826;48.100;-1.670;2023-02-02T01:01:27;8.13;;;1.88;;
75236;SDS011;63826;48.100;-1.670;2023-02-02T01:03:53;5.80;;;2.10;;
75236;SDS011;63826;48.100;-1.670;2023-02-02T01:06:19;6.65;;;1.38;;
75236;SDS011;63826;48.100;-1.670;2023-02-02T01:08:45;5.45;;;1.70;;
75236;SDS011;63826;48.100;-1.670;2023-02-02T01:11:11;4.95;;;1.65;;
75236;SDS011;63826;48.100;-1.670;2023-02-02T01:13:37;7.07;;;1.60;;
75236;SDS011;63826;48.100;-1.670;2023-02-02T01:16:03;6.13;;;1.70;;
75236;SDS011;63826;48.100;-1.670;2023-02-02T01:18:29;5.00;;;1.50;;
75236;SDS011;63826;48.100;-1.670;2023-02-02T01:20:59;5.93;;;1.80;;
75236;SDS011;63826;48.100;-1.670;2023-02-02T01:23:25;4.90;;;1.42;;
75236;SDS011;63826;48.100;-1.670;2023-02-02T01:25:52;5.17;;;1.60;;
75236;SDS011;63826;48.100;-1.670;2023-02-02T01:28:18;5.97;;;1.40;;
75236;SDS011;63826;48.100;-1.670;2023-02-02T01:30:44;5.45;;;1.58;;
75236;SDS011;63826;48.100;-1.670;2023-02-02T01:33:10;5.18;;;1.20;;
75236;SDS011;63826;48.100;-1.670;2023-02-02T01:35:36;4.67;;;1.23;;
75236;SDS011;63826;48.100;-1.670;2023-02-02T01:38:02;6.75;;;1.70;;
75236;SDS011;63826;48.100;-1.670;2023-02-02T01:40:28;4.95;;;1.38;;
75236;SDS011;63826;48.100;-1.670;2023-02-02T01:42:54;5.77;;;1.50;;
75236;SDS011;63826;48.100;-1.670;2023-02-02T01:45:25;5.82;;;1.35;;
75236;SDS011;63826;48.100;-1.670;2023-02-02T01:47:53;5.90;;;1.45;;
75236;SDS011;63826;48.100;-1.670;2023-02-02T01:50:22;5.72;;;1.40;;
75236;SDS011;63826;48.100;-1.670;2023-02-02T01:52:49;5.03;;;1.30;;
75236;SDS011;63826;48.100;-1.670;2023-02-02T01:55:16;5.27;;;1.50;;
75236;SDS011;63826;48.100;-1.670;2023-02-02T01:57:51;6.35;;;1.40;;
75236;SDS011;63826;48.100;-1.670;2023-02-02T02:00:18;6.40;;;1.40;;
75236;SDS011;63826;48.100;-1.670;2023-02-02T02:02:49;4.30;;;1.08;;
75236;SDS011;63826;48.100;-1.670;2023-02-02T02:05:17;4.72;;;1.10;;
75236;SDS011;63826;48.100;-1.670;2023-02-02T02:07:44;4.83;;;1.20;;
75236;SDS011;63826;48.100;-1.670;2023-02-02T02:10:12;6.55;;;1.48;;
75236;SDS011;63826;48.100;-1.670;2023-02-02T02:12:38;5.35;;;1.20;;
75236;SDS011;63826;48.100;-1.670;2023-02-02T02:15:04;4.60;;;0.98;;
75236;SDS011;63826;48.100;-1.670;2023-02-02T02:35:31;4.63;;;0.90;;
75236;SDS011;63826;48.100;-1.670;2023-02-02T02:42:51;5.15;;;1.13;;
75236;SDS011;63826;48.100;-1.670;2023-02-02T02:45:19;3.87;;;1.10;;
75236;SDS011;63826;48.100;-1.670;2023-02-02T02:47:46;3.65;;;0.77;;
75236;SDS011;63826;48.100;-1.670;2023-02-02T02:50:13;3.97;;;0.90;;
75236;SDS011;63826;48.100;-1.670;2023-02-02T02:52:39;5.43;;;1.17;;
75236;SDS011;63826;48.100;-1.670;2023-02-02T02:55:05;4.30;;;0.88;;
75236;SDS011;63826;48.100;-1.670;2023-02-02T03:10:28;4.00;;;0.90;;
75236;SDS011;63826;48.100;-1.670;2023-02-02T03:12:55;3.70;;;0.90;;
75236;SDS011;63826;48.100;-1.670;2023-02-02T03:15:21;4.55;;;0.73;;
75236;SDS011;63826;48.100;-1.670;2023-02-02T03:17:47;3.47;;;0.90;;
75236;SDS011;63826;48.100;-1.670;2023-02-02T03:20:15;3.97;;;0.80;;
75236;SDS011;63826;48.100;-1.670;2023-02-02T03:22:41;4.88;;;0.90;;
75236;SDS011;63826;48.100;-1.670;2023-02-02T03:25:07;4.40;;;0.90;;
75236;SDS011;63826;48.100;-1.670;2023-02-02T03:27:35;4.45;;;1.20;;
75236;SDS011;63826;48.100;-1.670;2023-02-02T03:30:02;3.58;;;0.77;;
75236;SDS011;63826;48.100;-1.670;2023-02-02T03:32:28;5.20;;;0.93;;
75236;SDS011;63826;48.100;-1.670;2023-02-02T03:34:54;5.82;;;1.00;;
75236;SDS011;63826;48.100;-1.670;2023-02-02T03:37:20;4.03;;;0.73;;
75236;SDS011;63826;48.100;-1.670;2023-02-02T03:39:46;3.63;;;0.70;;
75236;SDS011;63826;48.100;-1.670;2023-02-02T03:42:12;4.80;;;1.10;;
75236;SDS011;63826;48.100;-1.670;2023-02-02T03:44:38;5.40;;;0.83;;
75236;SDS011;63826;48.100;-1.670;2023-02-02T03:47:04;4.72;;;0.95;;
75236;SDS011;63826;48.100;-1.670;2023-02-02T03:49:30;3.95;;;0.80;;
75236;SDS011;63826;48.100;-1.670;2023-02-02T03:51:56;4.63;;;0.90;;
75236;SDS011;63826;48.100;-1.670;2023-02-02T03:54:22;6.20;;;1.00;;
75236;SDS011;63826;48.100;-1.670;2023-02-02T03:56:48;4.35;;;1.05;;
75236;SDS011;63826;48.100;-1.670;2023-02-02T03:59:14;4.40;;;0.82;;
75236;SDS011;63826;48.100;-1.670;2023-02-02T04:01:40;5.18;;;1.10;;
75236;SDS011;63826;48.100;-1.670;2023-02-02T04:04:06;3.40;;;1.08;;
75236;SDS011;63826;48.100;-1.670;2023-02-02T04:06:32;6.00;;;0.95;;
75236;SDS011;63826;48.100;-1.670;2023-02-02T04:08:58;4.03;;;0.80;;
75236;SDS011;63826;48.100;-1.670;2023-02-02T04:11:24;5.50;;;1.20;;
75236;SDS011;63826;48.100;-1.670;2023-02-02T04:13:50;3.90;;;0.90;;
75236;SDS011;63826;48.100;-1.670;2023-02-02T04:16:16;4.53;;;1.03;;
75236;SDS011;63826;48.100;-1.670;2023-02-02T04:18:42;4.45;;;1.10;;
75236;SDS011;63826;48.100;-1.670;2023-02-02T04:21:08;3.72;;;0.80;;
75236;SDS011;63826;48.100;-1.670;2023-02-02T04:23:34;4.85;;;0.98;;
75236;SDS011;63826;48.100;-1.670;2023-02-02T04:26:00;4.53;;;0.90;;
75236;SDS011;63826;48.100;-1.670;2023-02-02T04:28:26;4.03;;;1.10;;
75236;SDS011;63826;48.100;-1.670;2023-02-02T04:30:53;5.13;;;0.80;;
75236;SDS011;63826;48.100;-1.670;2023-02-02T04:33:20;2.83;;;0.80;;
75236;SDS011;63826;48.100;-1.670;2023-02-02T04:35:47;4.40;;;0.65;;
75236;SDS011;63826;48.100;-1.670;2023-02-02T04:38:13;5.90;;;1.17;;
75236;SDS011;63826;48.100;-1.670;2023-02-02T04:40:39;4.35;;;0.82;;
75236;SDS011;63826;48.100;-1.670;2023-02-02T04:43:06;5.88;;;1.02;;
75236;SDS011;63826;48.100;-1.670;2023-02-02T04:45:32;4.43;;;0.93;;
75236;SDS011;63826;48.100;-1.670;2023-02-02T04:47:58;4.50;;;0.98;;
75236;SDS011;63826;48.100;-1.670;2023-02-02T04:50:24;5.73;;;0.80;;
75236;SDS011;63826;48.100;-1.670;2023-02-02T04:52:50;5.78;;;1.00;;
75236;SDS011;63826;48.100;-1.670;2023-02-02T04:55:16;4.75;;;0.85;;
75236;SDS011;63826;48.100;-1.670;2023-02-02T04:57:42;3.90;;;0.80;;
75236;SDS011;63826;48.100;-1.670;2023-02-02T05:00:09;5.03;;;1.02;;
75236;SDS011;63826;48.100;-1.670;2023-02-02T05:02:36;3.37;;;0.70;;
75236;SDS011;63826;48.100;-1.670;2023-02-02T05:05:02;4.57;;;0.85;;
75236;SDS011;63826;48.100;-1.670;2023-02-02T05:07:29;5.85;;;1.08;;
75236;SDS011;63826;48.100;-1.670;2023-02-02T05:09:55;3.65;;;0.80;;
75236;SDS011;63826;48.100;-1.670;2023-02-02T05:12:21;4.93;;;1.15;;
75236;SDS011;63826;48.100;-1.670;2023-02-02T05:14:47;4.27;;;0.90;;
75236;SDS011;63826;48.100;-1.670;2023-02-02T05:17:13;5.22;;;1.00;;
75236;SDS011;63826;48.100;-1.670;2023-02-02T05:19:39;3.42;;;0.70;;
75236;SDS011;63826;48.100;-1.670;2023-02-02T05:22:05;5.32;;;1.00;;
75236;SDS011;63826;48.100;-1.670;2023-02-02T05:24:31;3.60;;;0.83;;
75236;SDS011;63826;48.100;-1.670;2023-02-02T05:26:57;4.32;;;0.77;;
75236;SDS011;63826;48.100;-1.670;2023-02-02T05:29:25;4.10;;;0.75;;
75236;SDS011;63826;48.100;-1.670;2023-02-02T05:31:51;6.35;;;1.40;;
75236;SDS011;63826;48.100;-1.670;2023-02-02T05:34:17;6.63;;;1.40;;
75236;SDS011;63826;48.100;-1.670;2023-02-02T05:36:43;5.35;;;0.90;;
75236;SDS011;63826;48.100;-1.670;2023-02-02T05:39:09;6.00;;;1.23;;
75236;SDS011;63826;48.100;-1.670;2023-02-02T05:41:35;5.10;;;1.40;;
75236;SDS011;63826;48.100;-1.670;2023-02-02T05:44:02;4.38;;;0.80;;
75236;SDS011;63826;48.100;-1.670;2023-02-02T05:46:28;3.90;;;0.77;;
75236;SDS011;63826;48.100;-1.670;2023-02-02T05:48:54;3.65;;;0.82;;
75236;SDS011;63826;48.100;-1.670;2023-02-02T05:51:23;4.95;;;1.23;;
75236;SDS011;63826;48.100;-1.670;2023-02-02T05:53:50;4.65;;;1.13;;
75236;SDS011;63826;48.100;-1.670;2023-02-02T05:56:16;4.63;;;0.90;;
75236;SDS011;63826;48.100;-1.670;2023-02-02T05:58:42;4.97;;;1.00;;
75236;SDS011;63826;48.100;-1.670;2023-02-02T06:01:11;4.60;;;0.95;;
75236;SDS011;63826;48.100;-1.670;2023-02-02T06:03:37;3.33;;;0.70;;
75236;SDS011;63826;48.100;-1.670;2023-02-02T06:06:03;6.22;;;1.17;;
75236;SDS011;63826;48.100;-1.670;2023-02-02T06:08:29;3.35;;;1.05;;
75236;SDS011;63826;48.100;-1.670;2023-02-02T06:10:55;3.20;;;0.80;;
75236;SDS011;63826;48.100;-1.670;2023-02-02T06:13:21;4.65;;;0.98;;
75236;SDS011;63826;48.100;-1.670;2023-02-02T06:15:47;5.45;;;1.00;;
75236;SDS011;63826;48.100;-1.670;2023-02-02T06:18:13;4.40;;;1.00;;
75236;SDS011;63826;48.100;-1.670;2023-02-02T06:20:39;2.85;;;0.80;;
75236;SDS011;63826;48.100;-1.670;2023-02-02T06:23:05;4.57;;;0.90;;
75236;SDS011;63826;48.100;-1.670;2023-02-02T06:25:31;5.88;;;1.25;;
75236;SDS011;63826;48.100;-1.670;2023-02-02T06:27:58;3.50;;;1.02;;
75236;SDS011;63826;48.100;-1.670;2023-02-02T06:30:25;4.78;;;1.10;;
75236;SDS011;63826;48.100;-1.670;2023-02-02T06:32:51;4.47;;;1.15;;
75236;SDS011;63826;48.100;-1.670;2023-02-02T06:35:17;3.72;;;1.10;;
75236;SDS011;63826;48.100;-1.670;2023-02-02T06:37:44;5.47;;;1.58;;
75236;SDS011;63826;48.100;-1.670;2023-02-02T06:40:10;5.72;;;1.20;;
75236;SDS011;63826;48.100;-1.670;2023-02-02T06:42:37;4.63;;;1.30;;
75236;SDS011;63826;48.100;-1.670;2023-02-02T06:45:04;4.85;;;1.20;;
75236;SDS011;63826;48.100;-1.670;2023-02-02T06:47:32;3.60;;;1.00;;
75236;SDS011;63826;48.100;-1.670;2023-02-02T06:49:58;5.20;;;1.27;;
75236;SDS011;63826;48.100;-1.670;2023-02-02T06:52:25;6.38;;;1.40;;
75236;SDS011;63826;48.100;-1.670;2023-02-02T06:54:51;5.05;;;1.20;;
75236;SDS011;63826;48.100;-1.670;2023-02-02T06:57:17;4.03;;;1.00;;
75236;SDS011;63826;48.100;-1.670;2023-02-02T06:59:43;4.80;;;1.00;;
75236;SDS011;63826;48.100;-1.670;2023-02-02T07:02:12;4.40;;;1.25;;
75236;SDS011;63826;48.100;-1.670;2023-02-02T07:04:38;4.10;;;1.05;;
75236;SDS011;63826;48.100;-1.670;2023-02-02T07:07:04;3.78;;;1.00;;
75236;SDS011;63826;48.100;-1.670;2023-02-02T07:09:33;6.07;;;1.27;;
75236;SDS011;63826;48.100;-1.670;2023-02-02T07:12:00;4.97;;;1.27;;
75236;SDS011;63826;48.100;-1.670;2023-02-02T07:14:26;5.10;;;1.10;;
75236;SDS011;63826;48.100;-1.670;2023-02-02T07:16:52;3.75;;;0.93;;
75236;SDS011;63826;48.100;-1.670;2023-02-02T07:19:18;5.78;;;1.27;;
75236;SDS011;63826;48.100;-1.670;2023-02-02T07:21:44;4.37;;;1.00;;
75236;SDS011;63826;48.100;-1.670;2023-02-02T07:24:10;5.32;;;0.98;;
75236;SDS011;63826;48.100;-1.670;2023-02-02T07:26:36;3.30;;;1.10;;
75236;SDS011;63826;48.100;-1.670;2023-02-02T07:29:03;3.05;;;1.00;;
75236;SDS011;63826;48.100;-1.670;2023-02-02T07:31:29;4.40;;;1.05;;
75236;SDS011;63826;48.100;-1.670;2023-02-02T07:33:55;5.47;;;1.00;;
75236;SDS011;63826;48.100;-1.670;2023-02-02T07:36:22;4.20;;;0.95;;
75236;SDS011;63826;48.100;-1.670;2023-02-02T07:38:49;6.57;;;1.42;;
75236;SDS011;63826;48.100;-1.670;2023-02-02T07:41:15;7.00;;;1.45;;
75236;SDS011;63826;48.100;-1.670;2023-02-02T07:43:42;6.25;;;1.20;;
75236;SDS011;63826;48.100;-1.670;2023-02-02T07:46:08;9.80;;;1.50;;
75236;SDS011;63826;48.100;-1.670;2023-02-02T07:48:36;5.20;;;1.33;;
75236;SDS011;63826;48.100;-1.670;2023-02-02T07:51:04;5.82;;;1.30;;
75236;SDS011;63826;48.100;-1.670;2023-02-02T07:53:30;5.28;;;1.10;;
75236;SDS011;63826;48.100;-1.670;2023-02-02T07:56:10;7.25;;;1.20;;
75236;SDS011;63826;48.100;-1.670;2023-02-02T07:58:36;6.00;;;1.33;;
75236;SDS011;63826;48.100;-1.670;2023-02-02T08:01:03;5.25;;;1.30;;
75236;SDS011;63826;48.100;-1.670;2023-02-02T08:03:29;4.05;;;1.20;;
75236;SDS011;63826;48.100;-1.670;2023-02-02T08:05:55;6.68;;;1.40;;
75236;SDS011;63826;48.100;-1.670;2023-02-02T08:08:22;4.20;;;1.10;;
75236;SDS011;63826;48.100;-1.670;2023-02-02T08:10:48;5.03;;;1.10;;
75236;SDS011;63826;48.100;-1.670;2023-02-02T08:13:14;6.22;;;1.30;;
75236;SDS011;63826;48.100;-1.670;2023-02-02T08:15:40;4.25;;;1.27;;
75236;SDS011;63826;48.100;-1.670;2023-02-02T08:18:06;6.20;;;1.77;;
75236;SDS011;63826;48.100;-1.670;2023-02-02T08:20:32;5.18;;;1.33;;
75236;SDS011;63826;48.100;-1.670;2023-02-02T08:22:58;4.93;;;1.20;;
75236;SDS011;63826;48.100;-1.670;2023-02-02T08:25:24;4.22;;;1.45;;
75236;SDS011;63826;48.100;-1.670;2023-02-02T08:27:54;11.25;;;1.90;;
75236;SDS011;63826;48.100;-1.670;2023-02-02T08:30:22;6.10;;;1.50;;
75236;SDS011;63826;48.100;-1.670;2023-02-02T08:32:48;8.93;;;1.50;;
75236;SDS011;63826;48.100;-1.670;2023-02-02T08:35:15;10.90;;;2.00;;
75236;SDS011;63826;48.100;-1.670;2023-02-02T08:37:43;8.18;;;1.60;;
75236;SDS011;63826;48.100;-1.670;2023-02-02T08:40:09;14.70;;;2.10;;
75236;SDS011;63826;48.100;-1.670;2023-02-02T08:42:35;11.75;;;1.75;;
75236;SDS011;63826;48.100;-1.670;2023-02-02T08:45:01;13.45;;;2.00;;
75236;SDS011;63826;48.100;-1.670;2023-02-02T08:47:30;10.02;;;1.63;;
75236;SDS011;63826;48.100;-1.670;2023-02-02T08:49:56;13.02;;;1.83;;
75236;SDS011;63826;48.100;-1.670;2023-02-02T08:52:22;9.30;;;1.73;;
75236;SDS011;63826;48.100;-1.670;2023-02-02T08:54:48;7.45;;;1.50;;
75236;SDS011;63826;48.100;-1.670;2023-02-02T08:57:14;7.30;;;1.90;;
75236;SDS011;63826;48.100;-1.670;2023-02-02T08:59:41;7.10;;;1.60;;
75236;SDS011;63826;48.100;-1.670;2023-02-02T09:02:08;9.05;;;1.73;;
75236;SDS011;63826;48.100;-1.670;2023-02-02T09:04:34;7.28;;;2.10;;
75236;SDS011;63826;48.100;-1.670;2023-02-02T09:07:00;13.75;;;1.85;;
75236;SDS011;63826;48.100;-1.670;2023-02-02T09:09:26;10.48;;;1.65;;
75236;SDS011;63826;48.100;-1.670;2023-02-02T09:11:52;6.10;;;1.60;;
75236;SDS011;63826;48.100;-1.670;2023-02-02T09:14:18;10.07;;;1.42;;
75236;SDS011;63826;48.100;-1.670;2023-02-02T09:16:44;7.80;;;1.65;;
75236;SDS011;63826;48.100;-1.670;2023-02-02T09:19:10;6.78;;;1.80;;
75236;SDS011;63826;48.100;-1.670;2023-02-02T09:21:36;15.13;;;1.73;;
75236;SDS011;63826;48.100;-1.670;2023-02-02T09:24:10;5.97;;;1.48;;
75236;SDS011;63826;48.100;-1.670;2023-02-02T09:26:36;9.00;;;1.60;;
75236;SDS011;63826;48.100;-1.670;2023-02-02T09:29:04;8.18;;;1.75;;
75236;SDS011;63826;48.100;-1.670;2023-02-02T09:31:34;10.38;;;1.60;;
75236;SDS011;63826;48.100;-1.670;2023-02-02T09:34:01;8.35;;;1.65;;
75236;SDS011;63826;48.100;-1.670;2023-02-02T09:36:27;8.60;;;1.50;;
75236;SDS011;63826;48.100;-1.670;2023-02-02T09:38:53;7.38;;;1.75;;
75236;SDS011;63826;48.100;-1.670;2023-02-02T09:49:14;7.38;;;1.25;;
75236;SDS011;63826;48.100;-1.670;2023-02-02T09:51:45;10.00;;;1.80;;
75236;SDS011;63826;48.100;-1.670;2023-02-02T09:54:55;5.53;;;1.20;;
75236;SDS011;63826;48.100;-1.670;2023-02-02T09:57:01;6.55;;;1.40;;
75236;SDS011;63826;48.100;-1.670;2023-02-02T09:59:33;6.20;;;1.27;;
75236;SDS011;63826;48.100;-1.670;2023-02-02T10:02:02;8.55;;;1.42;;
75236;SDS011;63826;48.100;-1.670;2023-02-02T10:06:57;6.55;;;1.38;;
75236;SDS011;63826;48.100;-1.670;2023-02-02T10:14:49;7.82;;;1.35;;
75236;SDS011;63826;48.100;-1.670;2023-02-02T10:19:46;5.72;;;1.38;;
75236;SDS011;63826;48.100;-1.670;2023-02-02T10:22:16;6.15;;;1.40;;
75236;SDS011;63826;48.100;-1.670;2023-02-02T10:24:44;6.77;;;1.30;;
75236;SDS011;63826;48.100;-1.670;2023-02-02T10:27:14;6.95;;;1.55;;
75236;SDS011;63826;48.100;-1.670;2023-02-02T10:34:59;7.88;;;1.30;;
75236;SDS011;63826;48.100;-1.670;2023-02-02T10:45:49;14.25;;;1.63;;
75236;SDS011;63826;48.100;-1.670;2023-02-02T10:48:18;10.60;;;1.73;;
75236;SDS011;63826;48.100;-1.670;2023-02-02T10:50:47;6.20;;;1.43;;
75236;SDS011;63826;48.100;-1.670;2023-02-02T10:53:14;7.28;;;1.40;;
75236;SDS011;63826;48.100;-1.670;2023-02-02T10:55:54;8.95;;;1.60;;
75236;SDS011;63826;48.100;-1.670;2023-02-02T10:58:25;10.38;;;1.75;;
75236;SDS011;63826;48.100;-1.670;2023-02-02T11:00:56;8.82;;;1.50;;
75236;SDS011;63826;48.100;-1.670;2023-02-02T11:03:26;7.67;;;1.43;;
75236;SDS011;63826;48.100;-1.670;2023-02-02T11:05:53;8.50;;;1.30;;
75236;SDS011;63826;48.100;-1.670;2023-02-02T11:08:39;7.38;;;1.55;;
75236;SDS011;63826;48.100;-1.670;2023-02-02T11:13:58;5.28;;;1.20;;
75236;SDS011;63826;48.100;-1.670;2023-02-02T11:16:29;4.30;;;1.00;;
75236;SDS011;63826;48.100;-1.670;2023-02-02T11:18:56;6.18;;;1.15;;
75236;SDS011;63826;48.100;-1.670;2023-02-02T11:21:25;7.80;;;1.15;;
75236;SDS011;63826;48.100;-1.670;2023-02-02T11:23:59;6.40;;;0.77;;
75236;SDS011;63826;48.100;-1.670;2023-02-02T11:26:26;6.05;;;1.30;;
75236;SDS011;63826;48.100;-1.670;2023-02-02T11:28:53;9.00;;;1.10;;
75236;SDS011;63826;48.100;-1.670;2023-02-02T11:31:33;9.48;;;1.10;;
75236;SDS011;63826;48.100;-1.670;2023-02-02T11:36:44;5.88;;;1.10;;
75236;SDS011;63826;48.100;-1.670;2023-02-02T11:39:21;5.88;;;1.45;;
75236;SDS011;63826;48.100;-1.670;2023-02-02T11:41:47;5.00;;;0.93;;
75236;SDS011;63826;48.100;-1.670;2023-02-02T11:44:27;4.53;;;0.90;;
75236;SDS011;63826;48.100;-1.670;2023-02-02T11:46:54;5.15;;;0.90;;
75236;SDS011;63826;48.100;-1.670;2023-02-02T11:49:21;4.25;;;1.27;;
75236;SDS011;63826;48.100;-1.670;2023-02-02T11:52:21;5.13;;;1.08;;
75236;SDS011;63826;48.100;-1.670;2023-02-02T11:54:40;4.37;;;1.10;;
75236;SDS011;63826;48.100;-1.670;2023-02-02T11:57:14;5.85;;;1.17;;
75236;SDS011;63826;48.100;-1.670;2023-02-02T11:59:41;5.22;;;1.23;;
75236;SDS011;63826;48.100;-1.670;2023-02-02T12:04:37;6.18;;;0.93;;
75236;SDS011;63826;48.100;-1.670;2023-02-02T12:09:48;5.10;;;1.10;;
75236;SDS011;63826;48.100;-1.670;2023-02-02T12:17:41;5.05;;;0.90;;
75236;SDS011;63826;48.100;-1.670;2023-02-02T12:20:20;5.30;;;1.03;;
75236;SDS011;63826;48.100;-1.670;2023-02-02T12:28:23;4.38;;;0.63;;
75236;SDS011;63826;48.100;-1.670;2023-02-02T12:47:10;4.07;;;0.83;;
75236;SDS011;63826;48.100;-1.670;2023-02-02T13:02:52;4.35;;;0.80;;
75236;SDS011;63826;48.100;-1.670;2023-02-02T13:08:05;4.35;;;0.75;;
75236;SDS011;63826;48.100;-1.670;2023-02-02T13:10:35;4.45;;;0.80;;
75236;SDS011;63826;48.100;-1.670;2023-02-02T13:13:11;2.72;;;0.68;;
75236;SDS011;63826;48.100;-1.670;2023-02-02T13:15:43;3.00;;;0.70;;
75236;SDS011;63826;48.100;-1.670;2023-02-02T13:23:18;6.27;;;1.17;;
75236;SDS011;63826;48.100;-1.670;2023-02-02T13:25:46;5.75;;;1.10;;
75236;SDS011;63826;48.100;-1.670;2023-02-02T13:30:57;4.43;;;0.90;;
75236;SDS011;63826;48.100;-1.670;2023-02-02T13:33:26;5.32;;;0.90;;
75236;SDS011;63826;48.100;-1.670;2023-02-02T13:35:55;3.97;;;0.83;;
75236;SDS011;63826;48.100;-1.670;2023-02-02T13:38:29;6.68;;;0.93;;
75236;SDS011;63826;48.100;-1.670;2023-02-02T13:40:56;4.65;;;0.73;;
75236;SDS011;63826;48.100;-1.670;2023-02-02T13:53:46;6.88;;;0.63;;
75236;SDS011;63826;48.100;-1.670;2023-02-02T14:01:11;3.77;;;0.40;;
75236;SDS011;63826;48.100;-1.670;2023-02-02T14:06:09;3.40;;;0.65;;
75236;SDS011;63826;48.100;-1.670;2023-02-02T14:08:36;2.55;;;0.40;;
75236;SDS011;63826;48.100;-1.670;2023-02-02T14:11:03;2.80;;;0.60;;
75236;SDS011;63826;48.100;-1.670;2023-02-02T14:13:40;4.27;;;0.60;;
75236;SDS011;63826;48.100;-1.670;2023-02-02T14:19:05;5.05;;;0.75;;
75236;SDS011;63826;48.100;-1.670;2023-02-02T14:26:48;2.30;;;0.40;;
75236;SDS011;63826;48.100;-1.670;2023-02-02T14:31:56;3.22;;;0.35;;
75236;SDS011;63826;48.100;-1.670;2023-02-02T14:39:24;3.53;;;0.60;;
75236;SDS011;63826;48.100;-1.670;2023-02-02T14:47:41;2.63;;;0.43;;
75236;SDS011;63826;48.100;-1.670;2023-02-02T14:50:14;3.35;;;0.50;;
75236;SDS011;63826;48.100;-1.670;2023-02-02T14:52:41;2.77;;;0.47;;
75236;SDS011;63826;48.100;-1.670;2023-02-02T14:55:17;3.80;;;0.43;;
75236;SDS011;63826;48.100;-1.670;2023-02-02T14:57:44;3.67;;;0.50;;
75236;SDS011;63826;48.100;-1.670;2023-02-02T15:00:25;3.22;;;0.40;;
75236;SDS011;63826;48.100;-1.670;2023-02-02T15:02:52;2.28;;;0.45;;
75236;SDS011;63826;48.100;-1.670;2023-02-02T15:13:19;2.80;;;0.40;;
75236;SDS011;63826;48.100;-1.670;2023-02-02T15:15:46;3.08;;;0.60;;
75236;SDS011;63826;48.100;-1.670;2023-02-02T15:18:14;3.50;;;0.70;;
75236;SDS011;63826;48.100;-1.670;2023-02-02T15:20:43;3.35;;;0.50;;
75236;SDS011;63826;48.100;-1.670;2023-02-02T15:31:13;3.53;;;0.60;;
75236;SDS011;63826;48.100;-1.670;2023-02-02T15:33:42;6.53;;;0.95;;
75236;SDS011;63826;48.100;-1.670;2023-02-02T15:36:09;9.05;;;0.65;;
75236;SDS011;63826;48.100;-1.670;2023-02-02T15:38:38;3.70;;;0.60;;
75236;SDS011;63826;48.100;-1.670;2023-02-02T15:41:13;5.13;;;0.70;;
75236;SDS011;63826;48.100;-1.670;2023-02-02T15:43:43;5.27;;;0.77;;
75236;SDS011;63826;48.100;-1.670;2023-02-02T15:46:10;2.80;;;0.57;;
75236;SDS011;63826;48.100;-1.670;2023-02-02T15:48:37;3.13;;;0.40;;
75236;SDS011;63826;48.100;-1.670;2023-02-02T15:51:05;2.58;;;0.50;;
75236;SDS011;63826;48.100;-1.670;2023-02-02T15:58:49;6.00;;;0.88;;
75236;SDS011;63826;48.100;-1.670;2023-02-02T16:01:16;8.70;;;0.90;;
75236;SDS011;63826;48.100;-1.670;2023-02-02T16:03:50;7.15;;;0.80;;
75236;SDS011;63826;48.100;-1.670;2023-02-02T16:06:17;6.88;;;0.70;;
75236;SDS011;63826;48.100;-1.670;2023-02-02T16:08:43;8.38;;;0.75;;
75236;SDS011;63826;48.100;-1.670;2023-02-02T16:11:13;3.90;;;0.70;;
75236;SDS011;63826;48.100;-1.670;2023-02-02T16:13:40;4.00;;;0.60;;
75236;SDS011;63826;48.100;-1.670;2023-02-02T16:16:21;6.60;;;0.70;;
75236;SDS011;63826;48.100;-1.670;2023-02-02T16:18:47;7.78;;;0.90;;
75236;SDS011;63826;48.100;-1.670;2023-02-02T16:21:25;8.63;;;1.10;;
75236;SDS011;63826;48.100;-1.670;2023-02-02T16:23:52;4.35;;;0.55;;
75236;SDS011;63826;48.100;-1.670;2023-02-02T16:26:19;4.20;;;0.55;;
75236;SDS011;63826;48.100;-1.670;2023-02-02T16:28:47;5.68;;;0.73;;
75236;SDS011;63826;48.100;-1.670;2023-02-02T16:31:13;6.10;;;1.00;;
75236;SDS011;63826;48.100;-1.670;2023-02-02T16:33:40;4.87;;;0.80;;
75236;SDS011;63826;48.100;-1.670;2023-02-02T16:36:20;3.08;;;0.57;;
75236;SDS011;63826;48.100;-1.670;2023-02-02T16:38:46;4.95;;;0.60;;
75236;SDS011;63826;48.100;-1.670;2023-02-02T16:41:24;3.78;;;0.60;;
75236;SDS011;63826;48.100;-1.670;2023-02-02T16:43:50;3.47;;;0.50;;
75236;SDS011;63826;48.100;-1.670;2023-02-02T16:46:38;2.67;;;0.60;;
75236;SDS011;63826;48.100;-1.670;2023-02-02T16:49:02;3.85;;;0.60;;
75236;SDS011;63826;48.100;-1.670;2023-02-02T16:51:30;4.20;;;0.70;;
75236;SDS011;63826;48.100;-1.670;2023-02-02T16:56:36;3.60;;;0.63;;
75236;SDS011;63826;48.100;-1.670;2023-02-02T16:59:04;2.73;;;0.70;;
75236;SDS011;63826;48.100;-1.670;2023-02-02T17:01:33;3.15;;;0.85;;
75236;SDS011;63826;48.100;-1.670;2023-02-02T17:04:00;3.15;;;0.60;;
75236;SDS011;63826;48.100;-1.670;2023-02-02T17:06:30;4.07;;;0.80;;
75236;SDS011;63826;48.100;-1.670;2023-02-02T17:08:56;3.22;;;0.60;;
75236;SDS011;63826;48.100;-1.670;2023-02-02T17:11:38;3.37;;;0.80;;
75236;SDS011;63826;48.100;-1.670;2023-02-02T17:14:17;6.00;;;0.90;;
75236;SDS011;63826;48.100;-1.670;2023-02-02T17:16:43;6.95;;;0.73;;
75236;SDS011;63826;48.100;-1.670;2023-02-02T17:19:09;5.20;;;1.10;;
75236;SDS011;63826;48.100;-1.670;2023-02-02T17:21:35;5.13;;;1.20;;
75236;SDS011;63826;48.100;-1.670;2023-02-02T17:24:01;4.22;;;0.77;;
75236;SDS011;63826;48.100;-1.670;2023-02-02T17:26:27;3.80;;;0.95;;
75236;SDS011;63826;48.100;-1.670;2023-02-02T17:28:56;8.82;;;1.10;;
75236;SDS011;63826;48.100;-1.670;2023-02-02T17:31:24;4.13;;;0.88;;
75236;SDS011;63826;48.100;-1.670;2023-02-02T17:33:50;3.23;;;0.80;;
75236;SDS011;63826;48.100;-1.670;2023-02-02T17:36:16;4.53;;;0.90;;
75236;SDS011;63826;48.100;-1.670;2023-02-02T17:38:42;4.03;;;0.98;;
75236;SDS011;63826;48.100;-1.670;2023-02-02T17:41:08;3.28;;;0.90;;
75236;SDS011;63826;48.100;-1.670;2023-02-02T17:43:36;5.53;;;0.90;;
75236;SDS011;63826;48.100;-1.670;2023-02-02T17:46:02;3.28;;;0.70;;
75236;SDS011;63826;48.100;-1.670;2023-02-02T17:48:28;4.10;;;0.88;;